createdAt,value
2019-03-31T00:00:02.263Z,79.17
2019-03-31T00:01:08.402Z,79.11
2019-03-31T00:02:03.230Z,78.86
2019-03-31T00:03:02.318Z,78.56
2019-03-31T00:04:02.190Z,78.39
2019-03-31T00:05:02.252Z,78.28
2019-03-31T00:06:02.166Z,79.41
2019-03-31T00:07:02.242Z,79.31
2019-03-31T00:08:02.162Z,79.21
2019-03-31T00:09:02.265Z,79.11
2019-03-31T00:10:02.148Z,79.21
2019-03-31T00:11:02.169Z,79.00
2019-03-31T00:12:02.103Z,79.31
2019-03-31T00:13:02.184Z,79.21
2019-03-31T00:14:02.075Z,79.52
2019-03-31T00:15:02.265Z,79.82
2019-03-31T00:16:02.102Z,79.72
2019-03-31T00:17:02.104Z,79.38
2019-03-31T00:18:02.037Z,78.97
2019-03-31T00:19:02.122Z,79.41
2019-03-31T00:20:02.049Z,79.27
2019-03-31T00:21:02.035Z,79.41
2019-03-31T00:22:02.001Z,78.97
2019-03-31T00:23:02.053Z,79.38
2019-03-31T00:24:02.037Z,79.52
2019-03-31T00:25:02.107Z,79.58
2019-03-31T00:26:01.947Z,79.41
2019-03-31T00:27:02.111Z,79.79
2019-03-31T00:28:01.975Z,79.82
2019-03-31T00:29:02.002Z,79.99
2019-03-31T00:30:01.970Z,79.79
2019-03-31T00:31:02.005Z,79.27
2019-03-31T00:32:01.891Z,79.48
2019-03-31T00:33:01.915Z,79.38
2019-03-31T00:34:01.859Z,79.38
2019-03-31T00:35:02.166Z,79.17
2019-03-31T00:36:01.832Z,79.48
2019-03-31T00:37:01.971Z,79.27
2019-03-31T00:38:01.841Z,79.79
2019-03-31T00:39:01.852Z,79.79
2019-03-31T00:40:01.824Z,79.79
2019-03-31T00:41:01.890Z,79.68
2019-03-31T00:42:01.769Z,79.79
2019-03-31T00:43:01.876Z,79.48
2019-03-31T00:44:01.774Z,79.38
2019-03-31T00:45:01.797Z,79.17
2019-03-31T00:46:01.775Z,79.79
2019-03-31T00:47:02.333Z,79.79
2019-03-31T00:48:01.718Z,79.58
2019-03-31T00:49:01.820Z,79.68
2019-03-31T00:50:01.681Z,79.99
2019-03-31T00:51:01.758Z,79.79
2019-03-31T00:52:01.694Z,79.58
2019-03-31T00:53:01.745Z,79.68
2019-03-31T00:54:01.636Z,79.68
2019-03-31T00:55:01.653Z,80.33
2019-03-31T00:56:01.654Z,80.60
2019-03-31T00:57:01.672Z,80.54
2019-03-31T00:58:01.607Z,80.74
2019-03-31T00:59:01.687Z,81.36
2019-03-31T01:00:01.597Z,81.26
2019-03-31T01:01:01.642Z,81.05
2019-03-31T01:02:01.550Z,81.15
2019-03-31T01:03:01.609Z,81.05
2019-03-31T01:04:01.525Z,81.12
2019-03-31T01:05:01.620Z,81.15
2019-03-31T01:06:01.540Z,81.05
2019-03-31T01:07:01.534Z,81.26
2019-03-31T01:08:01.501Z,80.95
2019-03-31T01:09:01.555Z,81.15
2019-03-31T01:10:01.458Z,81.15
2019-03-31T01:11:01.587Z,81.36
2019-03-31T01:12:01.446Z,80.95
2019-03-31T01:13:01.478Z,81.29
2019-03-31T01:14:01.416Z,81.20
2019-03-31T01:15:01.492Z,81.60
2019-03-31T01:16:01.423Z,81.91
2019-03-31T01:17:01.548Z,82.01
2019-03-31T01:18:01.412Z,82.01
2019-03-31T01:19:01.410Z,81.81
2019-03-31T01:20:01.358Z,81.91
2019-03-31T01:21:01.432Z,82.22
2019-03-31T01:22:01.436Z,82.63
2019-03-31T01:23:01.439Z,82.22
2019-03-31T01:24:01.330Z,82.32
2019-03-31T01:25:01.354Z,82.22
2019-03-31T01:26:01.277Z,82.42
2019-03-31T01:27:01.413Z,81.85
2019-03-31T01:28:01.283Z,81.81
2019-03-31T01:29:01.384Z,81.71
2019-03-31T01:30:01.246Z,82.15
2019-03-31T01:31:01.288Z,81.95
2019-03-31T01:32:01.241Z,81.85
2019-03-31T01:33:01.318Z,82.05
2019-03-31T01:34:01.192Z,82.46
2019-03-31T01:35:01.336Z,83.39
2019-03-31T01:36:01.177Z,82.91
2019-03-31T01:37:01.277Z,83.12
2019-03-31T01:38:01.143Z,82.70
2019-03-31T01:39:01.243Z,82.70
2019-03-31T01:40:01.125Z,82.91
2019-03-31T01:41:01.156Z,83.12
2019-03-31T01:42:01.142Z,83.22
2019-03-31T01:43:01.208Z,83.56
2019-03-31T01:44:01.083Z,84.69
2019-03-31T01:45:01.188Z,84.49
2019-03-31T01:46:01.071Z,84.18
2019-03-31T01:47:01.142Z,84.01
2019-03-31T01:48:01.101Z,84.08
2019-03-31T01:49:01.114Z,84.42
2019-03-31T01:50:01.022Z,85.04
2019-03-31T01:51:01.117Z,85.25
2019-03-31T01:52:01.025Z,85.86
2019-03-31T01:53:01.064Z,85.46
2019-03-31T01:54:00.988Z,85.18
2019-03-31T01:55:01.060Z,85.04
2019-03-31T01:56:00.947Z,84.88
2019-03-31T01:57:01.131Z,85.08
2019-03-31T01:58:00.962Z,85.39
2019-03-31T01:59:00.995Z,85.33
2019-03-31T02:00:00.912Z,84.88
2019-03-31T02:01:00.987Z,84.98
2019-03-31T02:02:04.578Z,85.39
2019-03-31T02:03:00.911Z,85.43
2019-03-31T02:04:00.901Z,85.43
2019-03-31T02:05:00.938Z,85.33
2019-03-31T02:06:00.852Z,85.94
2019-03-31T02:07:00.928Z,86.77
2019-03-31T02:08:00.868Z,86.25
2019-03-31T02:09:00.846Z,86.60
2019-03-31T02:10:00.805Z,86.70
2019-03-31T02:11:00.856Z,86.80
2019-03-31T02:12:00.777Z,86.91
2019-03-31T02:13:00.865Z,86.50
2019-03-31T02:14:00.788Z,86.91
2019-03-31T02:15:00.788Z,86.85
2019-03-31T02:16:00.729Z,87.46
2019-03-31T02:17:00.795Z,87.46
2019-03-31T02:18:00.749Z,87.57
2019-03-31T02:19:00.836Z,87.77
2019-03-31T02:20:00.698Z,88.02
2019-03-31T02:21:00.722Z,88.12
2019-03-31T02:22:00.672Z,88.43
2019-03-31T02:23:00.734Z,88.74
2019-03-31T02:24:00.662Z,88.74
2019-03-31T02:25:00.745Z,88.53
2019-03-31T02:26:00.625Z,88.74
2019-03-31T02:27:00.661Z,88.84
2019-03-31T02:28:00.605Z,88.43
2019-03-31T02:29:00.710Z,89.71
2019-03-31T02:30:00.798Z,89.71
2019-03-31T02:31:00.688Z,89.61
2019-03-31T02:32:00.550Z,89.50
2019-03-31T02:33:00.596Z,89.81
2019-03-31T02:34:00.572Z,90.12
2019-03-31T02:35:00.619Z,89.71
2019-03-31T02:36:00.529Z,89.61
2019-03-31T02:37:00.524Z,89.91
2019-03-31T02:38:00.507Z,89.91
2019-03-31T02:39:00.567Z,90.94
2019-03-31T02:40:00.664Z,91.56
2019-03-31T02:41:00.550Z,91.66
2019-03-31T02:42:00.446Z,91.46
2019-03-31T02:43:00.459Z,91.56
2019-03-31T02:44:00.449Z,91.87
2019-03-31T02:45:00.824Z,91.46
2019-03-31T02:46:00.398Z,91.21
2019-03-31T02:47:00.491Z,91.62
2019-03-31T02:48:00.381Z,91.72
2019-03-31T02:49:00.444Z,90.90
2019-03-31T02:50:00.818Z,91.11
2019-03-31T02:51:00.511Z,91.00
2019-03-31T02:52:00.339Z,90.69
2019-03-31T02:53:00.430Z,90.18
2019-03-31T02:54:00.329Z,89.97
2019-03-31T02:55:00.596Z,89.77
2019-03-31T02:56:00.282Z,89.87
2019-03-31T02:57:00.371Z,89.77
2019-03-31T02:58:00.258Z,90.08
2019-03-31T02:59:00.375Z,89.77
2019-03-31T03:00:00.678Z,89.87
2019-03-31T03:01:00.281Z,89.87
2019-03-31T03:02:00.213Z,90.49
2019-03-31T03:04:01.245Z,90.28
2019-03-31T03:05:17.671Z,90.59
2019-03-31T03:06:01.184Z,90.28
2019-03-31T03:08:01.196Z,90.45
2019-03-31T03:09:00.246Z,90.96
2019-03-31T03:10:00.482Z,90.14
2019-03-31T03:11:01.197Z,90.55
2019-03-31T03:12:00.098Z,90.34
2019-03-31T03:13:02.204Z,89.94
2019-03-31T03:14:00.080Z,89.62
2019-03-31T03:16:01.143Z,89.62
2019-03-31T03:17:00.088Z,89.62
2019-03-31T03:18:00.029Z,89.62
2019-03-31T03:20:01.107Z,89.52
2019-03-31T03:21:00.140Z,89.77
2019-03-31T03:21:59.997Z,90.49
2019-03-31T03:23:00.026Z,90.18
2019-03-31T03:23:59.966Z,90.18
2019-03-31T03:25:00.031Z,91.00
2019-03-31T03:25:59.971Z,90.80
2019-03-31T03:27:00.061Z,91.21
2019-03-31T03:27:59.923Z,91.78
2019-03-31T03:28:59.971Z,91.27
2019-03-31T03:29:59.911Z,91.38
2019-03-31T03:31:00.414Z,91.58
2019-03-31T03:31:59.927Z,91.27
2019-03-31T03:33:14.977Z,90.14
2019-03-31T03:34:01.030Z,90.81
2019-03-31T03:34:59.924Z,90.00
2019-03-31T03:35:59.860Z,89.79
2019-03-31T03:36:59.920Z,89.89
2019-03-31T03:37:59.809Z,89.79
2019-03-31T03:38:59.826Z,89.48
2019-03-31T03:39:59.789Z,89.69
2019-03-31T03:40:59.870Z,89.07
2019-03-31T03:41:59.791Z,89.38
2019-03-31T03:42:59.867Z,89.79
2019-03-31T03:44:02.384Z,89.73
2019-03-31T03:44:59.775Z,90.34
2019-03-31T03:45:59.770Z,90.34
2019-03-31T03:46:59.795Z,89.42
2019-03-31T03:47:59.701Z,89.52
2019-03-31T03:48:59.942Z,90.03
2019-03-31T03:49:59.699Z,90.03
2019-03-31T03:51:00.762Z,90.55
2019-03-31T03:51:59.680Z,90.34
2019-03-31T03:52:59.786Z,90.45
2019-03-31T03:53:59.637Z,90.66
2019-03-31T03:54:59.737Z,90.66
2019-03-31T03:55:59.641Z,90.03
2019-03-31T03:56:59.650Z,90.34
2019-03-31T03:57:59.589Z,90.14
2019-03-31T03:58:59.682Z,90.34
2019-03-31T03:59:59.565Z,90.55
2019-03-31T04:00:59.726Z,90.75
2019-03-31T04:01:59.568Z,90.55
2019-03-31T04:02:59.596Z,90.55
2019-03-31T04:03:59.510Z,90.55
2019-03-31T04:04:59.594Z,90.55
2019-03-31T04:05:59.511Z,90.75
2019-03-31T04:07:00.567Z,90.55
2019-03-31T04:07:59.472Z,90.49
2019-03-31T04:08:59.527Z,90.55
2019-03-31T04:09:59.447Z,90.45
2019-03-31T04:10:59.540Z,90.39
2019-03-31T04:11:59.452Z,89.52
2019-03-31T04:14:00.447Z,89.22
2019-03-31T04:14:59.486Z,89.01
2019-03-31T04:15:59.378Z,88.90
2019-03-31T04:16:59.506Z,88.80
2019-03-31T04:17:59.365Z,88.59
2019-03-31T04:18:59.391Z,88.90
2019-03-31T04:19:59.334Z,88.80
2019-03-31T04:20:59.410Z,87.98
2019-03-31T04:21:59.340Z,87.36
2019-03-31T04:22:59.417Z,87.46
2019-03-31T04:23:59.308Z,87.05
2019-03-31T04:24:59.339Z,86.85
2019-03-31T04:25:59.272Z,86.54
2019-03-31T04:26:59.369Z,87.12
2019-03-31T04:27:59.245Z,86.29
2019-03-31T04:30:00.768Z,86.64
2019-03-31T04:30:59.321Z,86.60
2019-03-31T04:31:59.284Z,86.70
2019-03-31T04:32:59.340Z,85.78
2019-03-31T04:33:59.241Z,85.98
2019-03-31T04:36:46.030Z,85.26
2019-03-31T04:37:46.039Z,85.30
2019-03-31T04:38:46.005Z,85.36
2019-03-31T04:39:46.129Z,85.16
2019-03-31T04:40:45.989Z,85.57
2019-03-31T04:41:46.029Z,85.36
2019-03-31T04:42:45.997Z,85.47
2019-03-31T04:43:46.053Z,85.20
2019-03-31T04:44:45.980Z,85.61
2019-03-31T04:45:46.005Z,85.51
2019-03-31T04:46:45.916Z,85.41
2019-03-31T04:47:46.005Z,85.20
2019-03-31T04:48:45.905Z,85.71
2019-03-31T04:49:45.999Z,85.41
2019-03-31T04:50:45.909Z,85.20
2019-03-31T04:51:45.900Z,85.51
2019-03-31T04:52:45.898Z,85.20
2019-03-31T04:53:45.920Z,85.10
2019-03-31T04:54:45.845Z,85.30
2019-03-31T04:55:45.938Z,85.41
2019-03-31T04:56:45.804Z,85.30
2019-03-31T04:57:45.879Z,85.61
2019-03-31T04:58:45.911Z,85.41
2019-03-31T04:59:45.855Z,84.99
2019-03-31T05:00:45.765Z,85.30
2019-03-31T05:01:45.869Z,85.20
2019-03-31T05:02:45.825Z,85.41
2019-03-31T05:03:45.783Z,85.20
2019-03-31T05:04:45.715Z,85.24
2019-03-31T05:05:45.795Z,85.30
2019-03-31T05:06:45.729Z,85.65
2019-03-31T05:07:45.832Z,85.14
2019-03-31T05:08:45.674Z,85.24
2019-03-31T05:09:45.727Z,85.34
2019-03-31T05:10:45.652Z,85.65
2019-03-31T05:11:45.754Z,85.24
2019-03-31T05:12:45.670Z,85.86
2019-03-31T05:13:45.666Z,85.86
2019-03-31T05:14:45.604Z,86.06
2019-03-31T05:15:45.673Z,85.86
2019-03-31T05:16:45.579Z,85.75
2019-03-31T05:17:45.671Z,85.96
2019-03-31T05:18:45.584Z,85.65
2019-03-31T05:19:45.577Z,85.65
2019-03-31T05:20:45.551Z,86.58
2019-03-31T05:21:45.599Z,86.37
2019-03-31T05:22:45.514Z,86.47
2019-03-31T05:23:45.647Z,86.72
2019-03-31T05:24:45.496Z,86.47
2019-03-31T05:25:45.524Z,86.06
2019-03-31T05:26:45.463Z,86.00
2019-03-31T05:27:45.545Z,86.10
2019-03-31T05:28:45.501Z,86.21
2019-03-31T05:29:45.574Z,85.59
2019-03-31T05:30:45.431Z,85.38
2019-03-31T05:31:45.471Z,85.89
2019-03-31T05:32:45.402Z,85.69
2019-03-31T05:33:45.532Z,85.59
2019-03-31T05:34:45.390Z,86.10
2019-03-31T05:35:45.490Z,85.79
2019-03-31T05:36:45.365Z,85.59
2019-03-31T05:38:46.408Z,85.79
2019-03-31T05:39:45.420Z,85.79
2019-03-31T05:40:45.307Z,85.28
2019-03-31T05:41:45.432Z,86.41
2019-03-31T05:42:45.316Z,85.65
2019-03-31T05:43:45.370Z,87.03
2019-03-31T05:44:45.261Z,86.41
2019-03-31T05:45:45.353Z,87.03
2019-03-31T05:46:45.248Z,85.69
2019-03-31T05:47:45.277Z,86.00
2019-03-31T05:48:45.242Z,85.69
2019-03-31T05:49:45.312Z,86.21
2019-03-31T05:50:45.229Z,86.72
2019-03-31T05:51:45.307Z,86.00
2019-03-31T05:52:45.182Z,85.69
2019-03-31T05:53:45.207Z,86.82
2019-03-31T05:54:45.217Z,86.31
2019-03-31T05:55:45.252Z,86.31
2019-03-31T05:56:45.129Z,86.10
2019-03-31T05:57:45.243Z,86.61
2019-03-31T05:58:45.141Z,86.61
2019-03-31T05:59:45.185Z,87.03
2019-03-31T06:00:45.084Z,86.82
2019-03-31T06:01:45.168Z,86.93
2019-03-31T06:02:45.070Z,86.21
2019-03-31T06:03:45.172Z,86.52
2019-03-31T06:04:45.068Z,86.66
2019-03-31T06:05:45.110Z,86.72
2019-03-31T06:06:45.117Z,86.52
2019-03-31T06:07:45.104Z,86.52
2019-03-31T06:08:44.989Z,86.52
2019-03-31T06:09:46.229Z,86.52
2019-03-31T06:10:45.005Z,86.97
2019-03-31T06:11:45.022Z,87.03
2019-03-31T06:12:44.949Z,86.87
2019-03-31T06:13:45.037Z,86.61
2019-03-31T06:14:44.971Z,87.07
2019-03-31T06:15:45.047Z,86.52
2019-03-31T06:16:44.906Z,86.82
2019-03-31T06:17:44.955Z,87.13
2019-03-31T06:18:44.880Z,87.13
2019-03-31T06:19:44.992Z,87.03
2019-03-31T06:20:44.905Z,87.03
2019-03-31T06:21:44.888Z,87.07
2019-03-31T06:22:44.839Z,87.07
2019-03-31T06:23:44.909Z,87.75
2019-03-31T06:24:44.851Z,87.27
2019-03-31T06:25:44.962Z,87.79
2019-03-31T06:26:44.792Z,87.69
2019-03-31T06:27:44.842Z,87.48
2019-03-31T06:28:44.797Z,87.48
2019-03-31T06:29:44.858Z,88.31
2019-03-31T06:30:44.790Z,87.69
2019-03-31T06:31:44.856Z,88.20
2019-03-31T06:32:44.721Z,87.99
2019-03-31T06:33:44.767Z,87.79
2019-03-31T06:34:47.779Z,87.69
2019-03-31T06:35:44.841Z,87.99
2019-03-31T06:36:44.703Z,88.31
2019-03-31T06:37:44.790Z,87.59
2019-03-31T06:38:44.668Z,87.99
2019-03-31T06:39:44.714Z,87.59
2019-03-31T06:40:44.659Z,88.10
2019-03-31T06:41:44.746Z,87.99
2019-03-31T06:42:44.610Z,87.59
2019-03-31T06:43:44.624Z,87.32
2019-03-31T06:44:44.629Z,87.59
2019-03-31T06:45:44.671Z,88.14
2019-03-31T06:46:44.594Z,88.14
2019-03-31T06:47:44.652Z,88.56
2019-03-31T06:48:44.548Z,88.96
2019-03-31T06:49:44.590Z,87.79
2019-03-31T06:50:44.522Z,87.83
2019-03-31T06:51:44.580Z,88.24
2019-03-31T06:52:44.524Z,87.69
2019-03-31T06:53:44.627Z,87.69
2019-03-31T06:54:44.476Z,87.69
2019-03-31T06:55:44.505Z,87.48
2019-03-31T06:56:47.089Z,87.79
2019-03-31T06:57:44.519Z,87.48
2019-03-31T06:58:44.436Z,87.79
2019-03-31T06:59:44.657Z,87.69
2019-03-31T07:00:44.524Z,87.17
2019-03-31T07:01:44.454Z,87.27
2019-03-31T07:02:44.411Z,87.79
2019-03-31T07:03:44.466Z,86.93
2019-03-31T07:04:44.357Z,86.72
2019-03-31T07:05:44.492Z,87.03
2019-03-31T07:06:44.344Z,86.72
2019-03-31T07:07:44.414Z,87.13
2019-03-31T07:08:44.329Z,86.00
2019-03-31T07:09:44.397Z,86.06
2019-03-31T07:10:44.297Z,85.49
2019-03-31T07:11:44.348Z,85.24
2019-03-31T07:12:44.298Z,85.65
2019-03-31T07:13:44.337Z,85.55
2019-03-31T07:14:44.253Z,85.24
2019-03-31T07:15:44.352Z,85.24
2019-03-31T07:16:44.226Z,85.59
2019-03-31T07:17:44.295Z,85.44
2019-03-31T07:18:44.208Z,85.65
2019-03-31T07:19:44.266Z,85.55
2019-03-31T07:20:44.200Z,85.20
2019-03-31T07:21:44.298Z,84.38
2019-03-31T07:22:44.183Z,84.34
2019-03-31T07:23:44.229Z,83.83
2019-03-31T07:24:44.166Z,83.20
2019-03-31T07:25:44.206Z,83.41
2019-03-31T07:26:44.111Z,83.31
2019-03-31T07:27:44.414Z,82.86
2019-03-31T07:28:44.130Z,82.55
2019-03-31T07:29:44.133Z,82.65
2019-03-31T07:30:44.064Z,82.28
2019-03-31T07:31:44.151Z,82.14
2019-03-31T07:32:44.049Z,82.55
2019-03-31T07:33:44.231Z,82.76
2019-03-31T07:34:44.020Z,82.34
2019-03-31T07:35:44.090Z,82.34
2019-03-31T07:36:44.007Z,82.55
2019-03-31T07:37:47.598Z,82.24
2019-03-31T07:38:44.052Z,82.41
2019-03-31T07:39:45.973Z,82.00
2019-03-31T07:40:44.193Z,81.38
2019-03-31T07:41:44.193Z,81.48
2019-03-31T07:42:43.934Z,81.79
2019-03-31T07:43:44.060Z,81.59
2019-03-31T07:44:43.911Z,80.93
2019-03-31T07:45:43.956Z,80.87
2019-03-31T07:46:43.892Z,80.73
2019-03-31T07:47:43.953Z,80.93
2019-03-31T07:48:43.887Z,80.52
2019-03-31T07:49:44.026Z,80.52
2019-03-31T07:50:43.846Z,80.49
2019-03-31T07:51:43.887Z,79.66
2019-03-31T07:52:43.835Z,80.58
2019-03-31T07:59:02.770Z,77.95
2019-03-31T08:00:02.720Z,78.67
2019-03-31T08:01:02.714Z,77.23
2019-03-31T08:02:02.716Z,76.68
2019-03-31T08:03:02.701Z,77.09
2019-03-31T08:04:02.716Z,75.82
2019-03-31T08:05:02.718Z,75.93
2019-03-31T08:06:02.659Z,75.69
2019-03-31T08:07:04.901Z,75.18
2019-03-31T08:08:02.634Z,74.77
2019-03-31T08:09:04.831Z,74.60
2019-03-31T08:10:02.674Z,75.18
2019-03-31T08:12:03.670Z,74.60
2019-03-31T08:14:03.639Z,75.04
2019-03-31T08:15:04.038Z,75.18
2019-03-31T08:16:02.557Z,75.15
2019-03-31T08:18:03.576Z,76.10
2019-03-31T08:20:03.590Z,75.15
2019-03-31T08:22:03.556Z,74.63
2019-03-31T08:23:04.411Z,74.49
2019-03-31T08:24:02.485Z,74.22
2019-03-31T08:25:04.313Z,74.22
2019-03-31T08:26:02.483Z,75.24
2019-03-31T08:27:05.453Z,74.60
2019-03-31T08:28:02.430Z,74.73
2019-03-31T08:29:02.422Z,74.90
2019-03-31T08:30:02.436Z,73.88
2019-03-31T08:31:02.996Z,73.68
2019-03-31T08:32:02.394Z,73.88
2019-03-31T08:34:03.428Z,73.23
2019-03-31T08:36:03.555Z,73.16
2019-03-31T08:38:03.371Z,72.99
2019-03-31T08:39:07.040Z,72.78
2019-03-31T08:40:02.338Z,72.07
2019-03-31T08:41:04.909Z,72.14
2019-03-31T08:42:02.285Z,71.86
2019-03-31T08:43:04.843Z,72.38
2019-03-31T08:44:02.275Z,73.20
2019-03-31T08:46:02.288Z,72.69
2019-03-31T08:48:03.255Z,72.24
2019-03-31T08:49:02.317Z,70.78
2019-03-31T08:50:02.791Z,71.70
2019-03-31T08:51:02.243Z,70.88
2019-03-31T08:52:02.160Z,70.88
2019-03-31T08:53:02.224Z,70.88
2019-03-31T08:54:02.133Z,70.16
2019-03-31T08:55:02.261Z,69.55
2019-03-31T08:56:02.153Z,69.65
2019-03-31T08:57:02.122Z,69.24
2019-03-31T08:58:02.103Z,70.37
2019-03-31T08:59:02.100Z,69.55
2019-03-31T09:00:02.086Z,69.07
2019-03-31T09:01:02.098Z,70.09
2019-03-31T09:02:03.449Z,70.09
2019-03-31T09:03:02.054Z,70.61
2019-03-31T09:04:02.033Z,70.71
2019-03-31T09:05:02.043Z,69.68
2019-03-31T09:06:02.750Z,70.06
2019-03-31T09:07:02.009Z,69.38
2019-03-31T09:08:01.985Z,69.38
2019-03-31T09:09:01.981Z,68.97
2019-03-31T09:10:01.963Z,69.07
2019-03-31T09:11:02.007Z,69.07
2019-03-31T09:12:01.969Z,70.50
2019-03-31T09:13:01.933Z,70.06
2019-03-31T09:14:01.943Z,69.14
2019-03-31T09:15:01.914Z,69.14
2019-03-31T09:16:01.983Z,68.22
2019-03-31T09:17:01.896Z,67.40
2019-03-31T09:18:01.888Z,68.52
2019-03-31T09:19:01.867Z,68.52
2019-03-31T09:20:01.903Z,68.46
2019-03-31T09:21:01.897Z,68.76
2019-03-31T09:22:01.857Z,69.58
2019-03-31T09:23:01.819Z,69.38
2019-03-31T09:24:01.845Z,68.32
2019-03-31T09:25:01.795Z,68.42
2019-03-31T09:26:01.812Z,68.87
2019-03-31T09:27:01.808Z,68.38
2019-03-31T09:28:01.792Z,68.90
2019-03-31T09:29:01.775Z,69.24
2019-03-31T09:30:22.764Z,69.20
2019-03-31T09:31:01.782Z,69.82
2019-03-31T09:32:01.776Z,69.99
2019-03-31T09:33:01.713Z,69.48
2019-03-31T09:34:01.714Z,69.27
2019-03-31T09:35:01.701Z,68.93
2019-03-31T09:36:15.021Z,69.04
2019-03-31T09:37:03.163Z,67.91
2019-03-31T09:38:01.669Z,68.93
2019-03-31T09:39:01.649Z,68.93
2019-03-31T09:40:01.676Z,68.22
2019-03-31T09:41:01.627Z,70.26
2019-03-31T09:42:01.686Z,69.27
2019-03-31T09:43:01.607Z,69.17
2019-03-31T09:44:01.622Z,69.79
2019-03-31T09:45:01.577Z,68.66
2019-03-31T09:46:01.781Z,70.20
2019-03-31T09:47:01.671Z,70.40
2019-03-31T09:48:01.574Z,69.68
2019-03-31T09:49:01.542Z,68.87
2019-03-31T09:50:01.548Z,68.15
2019-03-31T09:51:01.520Z,69.79
2019-03-31T09:52:01.569Z,69.51
2019-03-31T09:53:01.509Z,69.92
2019-03-31T09:54:01.491Z,69.20
2019-03-31T09:55:01.478Z,69.79
2019-03-31T09:56:01.474Z,69.58
2019-03-31T09:57:01.546Z,68.90
2019-03-31T09:58:01.483Z,69.20
2019-03-31T09:59:01.424Z,69.44
2019-03-31T10:00:01.420Z,70.57
2019-03-31T10:01:01.587Z,71.28
2019-03-31T10:02:01.404Z,70.26
2019-03-31T10:03:01.479Z,71.28
2019-03-31T10:04:01.527Z,71.15
2019-03-31T10:05:01.412Z,70.74
2019-03-31T10:06:10.701Z,70.29
2019-03-31T10:07:02.341Z,69.79
2019-03-31T10:08:01.390Z,69.79
2019-03-31T10:09:01.315Z,69.24
2019-03-31T10:10:01.366Z,69.45
2019-03-31T10:11:03.028Z,69.85
2019-03-31T10:12:01.294Z,68.52
2019-03-31T10:13:01.299Z,68.22
2019-03-31T10:14:01.323Z,70.06
2019-03-31T10:15:01.286Z,69.01
2019-03-31T10:16:01.338Z,68.84
2019-03-31T10:17:01.236Z,68.70
2019-03-31T10:18:01.318Z,67.57
2019-03-31T10:19:01.219Z,68.26
2019-03-31T10:20:01.211Z,69.01
2019-03-31T10:21:01.240Z,67.65
2019-03-31T10:23:02.254Z,67.98
2019-03-31T10:24:01.186Z,67.47
2019-03-31T10:25:01.160Z,68.19
2019-03-31T10:26:01.143Z,67.47
2019-03-31T10:27:01.126Z,67.40
2019-03-31T10:28:01.208Z,67.91
2019-03-31T10:29:01.113Z,68.29
2019-03-31T10:30:01.091Z,69.04
2019-03-31T10:31:01.075Z,69.04
2019-03-31T10:32:01.080Z,69.11
2019-03-31T10:33:01.060Z,70.23
2019-03-31T10:34:01.088Z,67.88
2019-03-31T10:35:01.037Z,68.80
2019-03-31T10:36:01.058Z,67.27
2019-03-31T10:37:01.012Z,67.47
2019-03-31T10:38:01.012Z,67.60
2019-03-31T10:39:01.018Z,68.97
2019-03-31T10:40:00.989Z,68.19
2019-03-31T10:41:00.997Z,69.18
2019-03-31T10:42:00.956Z,67.71
2019-03-31T10:43:01.026Z,66.80
2019-03-31T10:44:00.963Z,67.51
2019-03-31T10:45:00.947Z,66.90
2019-03-31T10:46:00.919Z,68.16
2019-03-31T10:47:00.910Z,67.34
2019-03-31T10:48:00.909Z,68.26
2019-03-31T10:49:00.884Z,67.34
2019-03-31T10:50:00.912Z,66.86
2019-03-31T10:51:00.857Z,66.96
2019-03-31T10:52:00.891Z,67.16
2019-03-31T10:53:00.863Z,67.88
2019-03-31T10:54:04.356Z,67.98
2019-03-31T10:55:00.855Z,67.68
2019-03-31T10:56:00.858Z,66.75
2019-03-31T10:57:00.799Z,67.07
2019-03-31T10:58:00.789Z,66.04
2019-03-31T10:59:00.767Z,66.04
2019-03-31T11:00:00.825Z,66.66
2019-03-31T11:01:00.788Z,66.04
2019-03-31T11:02:00.757Z,64.92
2019-03-31T11:03:00.730Z,64.92
2019-03-31T11:04:00.754Z,66.04
2019-03-31T11:05:00.761Z,64.81
2019-03-31T11:06:00.700Z,65.09
2019-03-31T11:07:03.537Z,64.78
2019-03-31T11:08:00.696Z,64.96
2019-03-31T11:09:00.684Z,64.75
2019-03-31T11:10:00.730Z,64.75
2019-03-31T11:11:00.680Z,64.22
2019-03-31T11:12:00.668Z,64.90
2019-03-31T11:13:00.652Z,62.52
2019-03-31T11:14:00.630Z,62.62
2019-03-31T11:15:00.684Z,62.04
2019-03-31T11:16:00.597Z,62.62
2019-03-31T11:17:00.570Z,61.98
2019-03-31T11:18:00.656Z,61.21
2019-03-31T11:19:00.583Z,61.21
2019-03-31T11:20:01.366Z,60.50
2019-03-31T11:21:00.526Z,59.55
2019-03-31T11:22:00.531Z,60.27
2019-03-31T11:23:00.512Z,59.28
2019-03-31T11:24:00.508Z,60.19
2019-03-31T11:25:00.531Z,61.21
2019-03-31T11:26:00.525Z,61.31
2019-03-31T11:27:00.479Z,60.63
2019-03-31T11:28:00.462Z,61.54
2019-03-31T11:29:00.464Z,61.27
2019-03-31T11:30:00.439Z,61.09
2019-03-31T11:31:00.471Z,62.55
2019-03-31T11:32:00.422Z,63.57
2019-03-31T11:33:00.418Z,62.65
2019-03-31T11:34:00.397Z,62.85
2019-03-31T11:35:00.380Z,62.85
2019-03-31T11:36:00.395Z,62.76
2019-03-31T11:37:12.980Z,62.65
2019-03-31T11:38:01.361Z,62.14
2019-03-31T11:39:00.346Z,62.04
2019-03-31T11:40:00.416Z,62.04
2019-03-31T11:41:00.346Z,61.43
2019-03-31T11:42:00.298Z,63.16
2019-03-31T11:43:00.309Z,61.12
2019-03-31T11:44:00.366Z,62.99
2019-03-31T11:45:00.424Z,62.99
2019-03-31T11:46:00.285Z,62.35
2019-03-31T11:47:00.277Z,61.19
2019-03-31T11:48:00.233Z,61.30
2019-03-31T11:49:00.228Z,60.58
2019-03-31T11:50:00.365Z,61.19
2019-03-31T11:51:00.606Z,61.25
2019-03-31T11:52:00.186Z,62.65
2019-03-31T11:53:00.217Z,62.88
2019-03-31T11:54:00.195Z,62.78
2019-03-31T11:55:00.266Z,63.60
2019-03-31T11:56:00.181Z,63.19
2019-03-31T11:57:00.263Z,63.47
2019-03-31T11:58:00.121Z,64.18
2019-03-31T11:59:00.125Z,62.45
2019-03-31T12:00:00.272Z,62.73
2019-03-31T12:01:00.109Z,62.59
2019-03-31T12:02:00.119Z,61.98
2019-03-31T12:03:00.072Z,60.93
2019-03-31T12:04:00.209Z,61.21
2019-03-31T12:05:00.153Z,60.60
2019-03-31T12:06:00.055Z,61.21
2019-03-31T12:07:00.104Z,60.30
2019-03-31T12:08:00.022Z,60.50
2019-03-31T12:09:00.009Z,60.32
2019-03-31T12:10:00.010Z,61.68
2019-03-31T12:10:59.987Z,60.35
2019-03-31T12:12:00.050Z,60.12
2019-03-31T12:12:59.993Z,59.89
2019-03-31T12:13:59.952Z,59.51
2019-03-31T12:15:01.065Z,59.30
2019-03-31T12:15:59.942Z,59.33
2019-03-31T12:16:59.962Z,59.94
2019-03-31T12:17:59.900Z,60.76
2019-03-31T12:18:59.907Z,59.81
2019-03-31T12:19:59.903Z,59.68
2019-03-31T12:20:59.887Z,58.76
2019-03-31T12:21:59.904Z,58.76
2019-03-31T12:22:59.861Z,59.07
2019-03-31T12:23:59.838Z,57.04
2019-03-31T12:24:59.835Z,57.44
2019-03-31T12:25:59.815Z,57.95
2019-03-31T12:26:59.814Z,56.63
2019-03-31T12:27:59.841Z,56.52
2019-03-31T12:28:59.832Z,56.85
2019-03-31T12:29:59.775Z,56.76
2019-03-31T12:30:59.787Z,58.49
2019-03-31T12:31:59.754Z,57.31
2019-03-31T12:32:59.797Z,58.26
2019-03-31T12:33:59.731Z,56.47
2019-03-31T12:34:59.736Z,56.16
2019-03-31T12:35:59.708Z,55.48
2019-03-31T12:36:59.731Z,56.83
2019-03-31T12:37:59.722Z,57.37
2019-03-31T12:38:59.719Z,58.08
2019-03-31T12:39:59.671Z,58.21
2019-03-31T12:40:59.678Z,58.64
2019-03-31T12:41:59.643Z,59.97
2019-03-31T12:42:59.715Z,60.69
2019-03-31T12:43:59.627Z,59.87
2019-03-31T12:44:59.661Z,60.21
2019-03-31T12:45:59.607Z,60.82
2019-03-31T12:46:59.595Z,61.43
2019-03-31T12:48:01.301Z,61.22
2019-03-31T12:48:59.598Z,62.21
2019-03-31T12:49:59.568Z,60.96
2019-03-31T12:50:59.582Z,59.91
2019-03-31T12:51:59.545Z,59.81
2019-03-31T12:52:59.596Z,59.89
2019-03-31T12:53:59.517Z,58.76
2019-03-31T12:54:59.504Z,58.59
2019-03-31T12:56:00.682Z,60.02
2019-03-31T12:56:59.488Z,59.81
2019-03-31T12:57:59.516Z,59.00
2019-03-31T12:58:59.497Z,60.73
2019-03-31T12:59:59.467Z,60.63
2019-03-31T13:00:59.551Z,60.22
2019-03-31T13:01:59.423Z,60.35
2019-03-31T13:02:59.417Z,60.05
2019-03-31T13:03:59.444Z,60.05
2019-03-31T13:04:59.403Z,59.94
2019-03-31T13:05:59.426Z,61.27
2019-03-31T13:06:59.392Z,60.35
2019-03-31T13:07:59.361Z,61.27
2019-03-31T13:08:59.383Z,60.66
2019-03-31T13:09:59.352Z,60.86
2019-03-31T13:10:59.334Z,60.14
2019-03-31T13:11:59.320Z,59.61
2019-03-31T13:12:59.318Z,60.53
2019-03-31T13:13:59.331Z,58.72
2019-03-31T13:15:20.322Z,57.87
2019-03-31T13:15:59.283Z,57.90
2019-03-31T13:17:01.500Z,58.82